Wardsboro, VT (05355)

11:54 AM EDT on July 04, 2015 (GMT -0400)
2 Miles up a dirt road | | Change Station
CLOSE
Current Station
Personal Weather Station
Location: East Dover, VT
Elevation: 1699 ft
Nearby Weather Stations

Elev 1699 ft 42.98 °N, 72.78 °W | Updated 38 seconds ago

Rain
Rain
60.4 °F
Feels Like 60.4 °F
N
0.0
Wind Variable Wind from West
Gusts 0.0 mph

Today
High -- | Low -- °F
--% Chance of Precip.
Yesterday
High -- | Low -- °F
Precip. -- in
5:17 AM 8:33 PM
Waning Gibbous, 91% visible
Pressure 30.00 in
Visibility 2.5 miles
Clouds Few 3000 ft
Overcast 7500 ft
Dew Point 55 °F
Humidity 83%
Rainfall 0.06 in
Snow Depth Not available.
UV 3 out of 12
Pollen 1.00 out of 12
Air Quality Not available.
Flu Activity Not available.
SPECI KDDH 041541Z AUTO 00000KT 2 1/2SM RA BR FEW030 OVC075 16/15 A3000 RMK AO2 P0006 T01610150 $

More Conditions Fewer Conditions

Pressure 30.00 in
Visibility 2.5 miles
Clouds Few 3000 ft
Overcast 7500 ft
Dew Point 55 °F
Humidity 83%
Rainfall 0.06 in
Snow Depth Not available.
UV 3 out of 12
Pollen 1.00 out of 12
Air Quality Not available.
Flu Activity Not available.
SPECI KDDH 041541Z AUTO 00000KT 2 1/2SM RA BR FEW030 OVC075 16/15 A3000 RMK AO2 P0006 T01610150 $

More Conditions Fewer Conditions

10-Day Weather Forecast

×

Almanac

Astronomy

Jul. 04, 2015 Rise Set
Actual Time
Civil Twilight
Nautical Twilight
Astronomical Twilight
Moon
Length of Visible Light
Length of Day
Tomorrow will be .
, % of the Moon is Illuminated

Today's Extremes

State Highs State Lows

Community

WunderPhotos

Upload Photos

1,834,989 photos uploaded!

WunderBlogs® & News

Nearby

Air Quality

  Air Quality AQ Index Pollutant
Not available.

Snow Depth

Station Depth Elevation

Earthquake Activity

City Distance Mag. Time & Date
Minimum magnitude displayed is 2.5.

Coastal Water Temperatures

Place Temperature

Stations

Nearby Weather Stations

Station Location Temp. Windchill Dew Point Humidity Wind Precip. Elev Updated Type